Time;durP1;ratioP1;P1;durP2;ratioP2;P2;SDS_P1;SDS_P2;PMS_P1;PMS_P2;Temp;Humidity;BMP_temperature;BMP_pressure;BME280_temperature;BME280_humidity;BME280_pressure;Samples;Min_cycle;Max_cycle;Signal;HPM_P1;HPM_P2
2021/05/06 06:33:31;;;;;;;7.72;3.58;;;;;;;8.29;70.32;97386.70;1890016;76;22652;-65
2021/05/06 06:36:01;;;;;;;6.15;3.33;;;;;;;8.38;68.80;97389.53;1860901;77;20903;-64
2021/05/06 06:38:31;;;;;;;5.72;3.45;;;;;;;8.47;68.60;97392.59;1861008;77;22203;-67
2021/05/06 06:41:03;;;;;;;4.28;2.60;;;;;;;8.60;67.98;97388.36;1862070;77;20930;-64
2021/05/06 06:43:31;;;;;;;7.37;3.10;;;;;;;8.72;67.78;97390.03;1860948;77;20926;-66
2021/05/06 06:46:01;;;;;;;3.98;2.80;;;;;;;8.83;67.48;97391.47;1823220;78;21067;-64
2021/05/06 06:48:29;;;;;;;5.40;3.20;;;;;;;8.91;65.51;97384.91;1824339;78;20883;-65
2021/05/06 06:50:58;;;;;;;9.08;3.27;;;;;;;9.01;65.56;97395.16;1823184;78;21212;-64
2021/05/06 06:53:28;;;;;;;4.05;3.00;;;;;;;9.09;65.66;97392.59;1823091;78;20976;-65
2021/05/06 06:55:57;;;;;;;7.22;2.95;;;;;;;9.17;65.37;97402.61;1823171;78;20984;-63
2021/05/06 06:58:27;;;;;;;6.50;2.98;;;;;;;9.25;64.12;97397.13;1822802;78;21222;-65
2021/05/06 07:00:56;;;;;;;6.03;3.02;;;;;;;9.37;63.26;97400.88;1823084;78;21043;-66
2021/05/06 07:03:25;;;;;;;5.45;3.10;;;;;;;9.49;63.13;97392.40;1822818;78;21351;-63
2021/05/06 07:05:56;;;;;;;6.67;2.75;;;;;;;9.61;62.59;97412.19;1822949;78;20980;-66
2021/05/06 07:08:39;;;;;;;4.67;2.85;;;;;;;9.62;61.97;97414.32;1823202;78;20996;-65
2021/05/06 07:11:00;;;;;;;5.40;2.62;;;;;;;9.66;60.72;97423.89;1819447;78;20937;-65
2021/05/06 07:13:28;;;;;;;5.17;2.80;;;;;;;9.71;60.83;97422.42;1822599;78;21101;-67
2021/05/06 07:16:02;;;;;;;6.12;2.80;;;;;;;9.66;59.32;97423.89;1823190;78;21214;-65
2021/05/06 07:18:32;;;;;;;6.17;2.52;;;;;;;9.51;59.24;97437.00;1823200;78;21471;-65
2021/05/06 07:21:02;;;;;;;5.00;3.20;;;;;;;9.41;59.03;97434.52;1823206;78;21075;-66
2021/05/06 07:23:34;;;;;;;4.35;3.10;;;;;;;9.36;59.31;97435.40;1823160;78;21036;-63
2021/05/06 07:26:05;;;;;;;4.80;2.80;;;;;;;9.35;59.92;97441.82;1821578;78;20987;-65
2021/05/06 07:28:44;;;;;;;4.45;2.80;;;;;;;9.39;59.94;97442.84;1808633;78;21475;-64
2021/05/06 07:31:22;;;;;;;3.77;2.60;;;;;;;9.40;59.73;97437.72;1789747;80;21178;-64
2021/05/06 07:33:51;;;;;;;6.92;2.92;;;;;;;9.37;59.98;97436.97;1751542;82;20939;-64
2021/05/06 07:36:23;;;;;;;5.17;2.70;;;;;;;9.35;58.88;97439.15;1789305;80;20947;-65
2021/05/06 07:38:53;;;;;;;7.75;2.80;;;;;;;9.34;59.02;97441.59;1789254;80;20995;-65
2021/05/06 07:41:23;;;;;;;6.67;3.50;;;;;;;9.50;59.62;97446.89;1789344;80;21393;-67
2021/05/06 07:43:54;;;;;;;5.60;2.42;;;;;;;9.74;60.70;97444.58;1788992;80;21050;-66
2021/05/06 07:46:24;;;;;;;4.08;2.25;;;;;;;10.10;57.89;97450.80;1788845;80;21605;-65
2021/05/06 07:48:54;;;;;;;5.78;2.50;;;;;;;10.35;57.38;97454.30;1788780;80;20968;-66
2021/05/06 07:51:25;;;;;;;4.75;2.05;;;;;;;10.51;56.04;97453.39;1788726;80;21601;-64
2021/05/06 07:53:56;;;;;;;5.10;2.25;;;;;;;10.61;56.75;97471.37;1788068;80;21376;-67
2021/05/06 07:56:26;;;;;;;6.28;2.22;;;;;;;10.64;53.25;97456.05;1788764;80;21557;-67
2021/05/06 07:58:56;;;;;;;5.05;2.17;;;;;;;10.52;52.92;97462.48;1788916;79;20955;-67
2021/05/06 08:01:24;;;;;;;6.28;2.25;;;;;;;10.40;52.77;97463.55;1789367;80;20971;-67
2021/05/06 08:03:53;;;;;;;4.50;1.92;;;;;;;10.30;52.41;97469.92;1789652;80;21034;-64
2021/05/06 08:06:22;;;;;;;2.92;2.08;;;;;;;10.32;53.69;97475.53;1788467;80;21378;-66
2021/05/06 08:08:52;;;;;;;4.20;2.20;;;;;;;10.51;53.03;97472.94;1787864;80;21049;-64
2021/05/06 08:11:22;;;;;;;3.30;2.00;;;;;;;10.63;53.94;97481.23;1787630;80;21164;-66
2021/05/06 08:13:53;;;;;;;3.98;1.75;;;;;;;10.59;51.73;97490.98;1787503;80;21208;-65
2021/05/06 08:16:21;;;;;;;3.58;1.75;;;;;;;10.54;49.42;97480.92;1787473;80;21204;-65
2021/05/06 08:18:52;;;;;;;6.30;1.75;;;;;;;10.56;49.96;97483.54;1798874;78;21215;-66
2021/05/06 08:21:21;;;;;;;3.55;1.80;;;;;;;10.61;48.15;97487.98;1775541;80;21177;-63
2021/05/06 08:23:49;;;;;;;2.92;1.87;;;;;;;10.60;47.41;97491.20;1741616;82;21073;-64
2021/05/06 08:26:18;;;;;;;3.67;1.82;;;;;;;10.54;47.66;97487.07;1727178;83;21180;-64
2021/05/06 08:28:51;;;;;;;3.98;1.90;;;;;;;10.65;47.11;97488.42;1815304;79;21192;-66
2021/05/06 08:31:21;;;;;;;3.95;1.45;;;;;;;10.77;47.81;97481.19;1814583;78;21276;-66
2021/05/06 08:33:49;;;;;;;2.87;1.67;;;;;;;10.92;48.00;97482.98;1813920;79;21223;-66
2021/05/06 08:36:18;;;;;;;2.37;1.27;;;;;;;11.06;45.74;97488.81;1813944;79;21196;-66
2021/05/06 08:38:46;;;;;;;3.85;1.92;;;;;;;11.09;46.13;97494.91;1829918;77;21011;-65
2021/05/06 08:41:18;;;;;;;3.40;1.62;;;;;;;11.18;45.47;97490.40;1815255;79;20994;-66
2021/05/06 08:43:53;;;;;;;4.72;1.70;;;;;;;11.26;46.63;97492.36;1815428;79;21345;-62
2021/05/06 08:46:17;;;;;;;10.05;1.52;;;;;;;11.41;45.68;97490.07;1814629;78;20997;-63
2021/05/06 08:48:48;;;;;;;1.98;1.40;;;;;;;11.54;45.31;97507.19;1774528;80;21452;-66
2021/05/06 08:51:16;;;;;;;5.28;1.90;;;;;;;11.53;44.90;97498.34;1776549;80;20944;-65
2021/05/06 08:53:45;;;;;;;4.58;1.52;;;;;;;11.49;45.26;97514.02;1776648;80;21576;-64
2021/05/06 08:56:14;;;;;;;3.50;1.50;;;;;;;11.43;44.80;97507.98;1776550;80;21015;-66
2021/05/06 08:58:42;;;;;;;2.95;1.30;;;;;;;11.39;44.17;97512.92;1776587;80;20968;-66
2021/05/06 09:01:12;;;;;;;3.33;1.60;;;;;;;11.29;42.35;97507.27;1776581;80;20941;-66
2021/05/06 09:03:40;;;;;;;3.75;1.67;;;;;;;11.13;42.75;97513.30;1776567;80;20941;-66
2021/05/06 09:06:19;;;;;;;4.80;1.57;;;;;;;11.00;43.22;97519.75;1776578;80;21016;-67
2021/05/06 09:08:57;;;;;;;3.27;1.80;;;;;;;10.98;43.34;97507.20;1798079;79;21202;-66
2021/05/06 09:11:32;;;;;;;3.27;1.72;;;;;;;11.06;42.67;97508.91;1800094;79;20939;-66
2021/05/06 09:14:05;;;;;;;7.17;1.60;;;;;;;11.26;44.47;97519.94;1806002;79;20894;-66
2021/05/06 09:16:41;;;;;;;3.27;1.50;;;;;;;11.65;44.68;97505.81;1808523;79;21147;-67
2021/05/06 09:19:15;;;;;;;3.55;1.70;;;;;;;12.13;42.87;97503.97;1799999;79;20936;-68
2021/05/06 09:21:45;;;;;;;3.00;1.57;;;;;;;12.45;40.54;97511.41;1765613;81;22034;-67
2021/05/06 09:24:26;;;;;;;2.67;1.62;;;;;;;12.60;40.44;97514.99;1792159;80;21050;-67
2021/05/06 09:26:58;;;;;;;2.60;1.62;;;;;;;12.73;40.05;97515.39;1793209;80;20947;-67
2021/05/06 09:29:37;;;;;;;2.35;1.50;;;;;;;12.76;38.61;97516.91;1836690;77;21082;-67
2021/05/06 09:32:15;;;;;;;4.33;1.75;;;;;;;12.66;41.10;97508.35;1836011;77;21181;-66
2021/05/06 09:34:45;;;;;;;1.42;1.10;;;;;;;12.80;40.87;97508.99;1738189;82;21225;-66
2021/05/06 09:37:29;;;;;;;4.62;1.40;;;;;;;13.11;40.63;97521.76;1807095;79;21198;-66
2021/05/06 09:40:02;;;;;;;5.25;1.70;;;;;;;13.39;38.29;97516.81;1807453;79;21543;-67
2021/05/06 09:42:47;;;;;;;4.22;1.30;;;;;;;13.41;37.84;97518.63;1806901;79;21578;-67
2021/05/06 09:45:26;;;;;;;2.12;1.35;;;;;;;13.44;37.60;97519.34;1806518;79;21203;-66
2021/05/06 09:48:16;;;;;;;2.50;1.47;;;;;;;13.53;40.29;97526.29;1807262;79;22150;-63
2021/05/06 09:50:49;;;;;;;3.65;1.62;;;;;;;13.60;37.71;97524.45;1807243;79;21182;-65
2021/05/06 09:53:21;;;;;;;2.75;1.42;;;;;;;13.59;38.07;97521.51;1807264;79;21245;-66
2021/05/06 09:55:50;;;;;;;3.30;1.72;;;;;;;13.60;37.92;97522.55;1807613;79;21112;-62
2021/05/06 09:58:24;;;;;;;4.78;1.90;;;;;;;13.51;38.70;97531.20;1786050;79;20937;-65
2021/05/06 10:00:54;;;;;;;4.03;1.50;;;;;;;13.27;38.73;97536.84;1807859;79;21368;-65
2021/05/06 10:03:31;;;;;;;2.05;1.40;;;;;;;13.07;39.85;97553.09;1806533;79;21229;-65
2021/05/06 10:06:13;;;;;;;3.50;1.72;;;;;;;12.95;39.63;97534.07;1807284;79;21175;-61
2021/05/06 10:08:41;;;;;;;3.45;1.57;;;;;;;12.88;39.81;97549.88;1809854;77;21198;-65
2021/05/06 10:11:17;;;;;;;3.98;1.60;;;;;;;12.85;41.07;97552.64;1846275;77;21180;-68
2021/05/06 10:13:48;;;;;;;4.47;1.70;;;;;;;12.90;37.27;97549.00;1820751;77;21382;-65
2021/05/06 10:16:16;;;;;;;6.95;1.42;;;;;;;12.99;37.57;97559.20;1840931;77;21172;-63
2021/05/06 10:18:45;;;;;;;3.12;1.60;;;;;;;13.18;37.64;97544.93;1847109;77;21185;-64
2021/05/06 10:21:17;;;;;;;4.62;1.57;;;;;;;13.37;36.65;97535.97;1847162;77;21184;-67
2021/05/06 10:23:51;;;;;;;3.50;1.40;;;;;;;13.55;36.16;97549.63;1817951;77;21600;-65
2021/05/06 10:26:19;;;;;;;7.47;1.47;;;;;;;13.60;36.46;97558.88;1840373;77;21374;-65
2021/05/06 10:28:52;;;;;;;2.95;1.37;;;;;;;13.56;36.08;97551.22;1826557;77;21142;-65
2021/05/06 10:31:21;;;;;;;5.78;1.65;;;;;;;13.57;36.23;97564.09;1814334;79;21129;-65
2021/05/06 10:33:50;;;;;;;2.17;1.32;;;;;;;13.63;36.42;97539.96;1815267;79;21077;-67
2021/05/06 10:36:19;;;;;;;5.10;1.60;;;;;;;13.65;35.21;97549.30;1762603;79;20891;-64
2021/05/06 10:38:48;;;;;;;3.95;1.30;;;;;;;13.55;35.65;97547.48;1814975;78;21401;-63
2021/05/06 10:41:32;;;;;;;4.60;1.40;;;;;;;13.39;35.57;97555.81;1815061;79;21125;-66
2021/05/06 10:44:10;;;;;;;2.60;1.50;;;;;;;13.20;35.79;97557.50;1815897;79;20923;-63
2021/05/06 10:49:30;;;;;;;6.12;1.57;;;;;;;12.89;37.17;97558.95;1816587;79;21084;-64
2021/05/06 10:52:08;;;;;;;2.10;1.27;;;;;;;12.96;37.22;97559.83;1815293;79;21203;-65
2021/05/06 10:54:42;;;;;;;2.75;1.30;;;;;;;12.98;36.96;97560.30;1814934;79;21172;-66
2021/05/06 10:57:19;;;;;;;6.20;1.75;;;;;;;12.98;35.43;97553.58;1815461;79;20927;-66
2021/05/06 10:59:48;;;;;;;2.85;1.37;;;;;;;12.98;35.46;97545.52;1815778;79;20996;-64
2021/05/06 11:02:43;;;;;;;3.37;1.40;;;;;;;12.94;36.56;97547.26;1815765;79;20982;-66
2021/05/06 11:05:20;;;;;;;4.28;1.52;;;;;;;12.95;36.15;97544.83;1780517;80;21401;-64
2021/05/06 11:08:09;;;;;;;4.00;1.50;;;;;;;12.91;36.76;97543.85;1809469;79;21088;-65
2021/05/06 11:10:50;;;;;;;6.20;1.85;;;;;;;12.83;37.13;97548.69;1815764;79;21156;-68
2021/05/06 11:13:21;;;;;;;3.12;1.52;;;;;;;12.77;37.38;97549.92;1815766;79;21065;-63
2021/05/06 11:15:50;;;;;;;12.78;2.00;;;;;;;12.70;37.61;97550.95;1815562;79;21121;-62
2021/05/06 11:18:49;;;;;;;3.40;1.45;;;;;;;12.63;38.04;97558.67;1816020;79;20938;-63
2021/05/06 11:21:34;;;;;;;3.60;1.50;;;;;;;12.62;38.54;97550.39;1815889;79;21026;-63
2021/05/06 11:24:38;;;;;;;4.12;1.75;;;;;;;12.55;38.68;97550.06;1815963;79;21639;-63
2021/05/06 11:27:20;;;;;;;4.20;1.92;;;;;;;12.45;38.94;97550.34;1704156;84;21497;-64
2021/05/06 11:29:46;;;;;;;8.45;1.80;;;;;;;12.73;40.63;97553.02;1704169;84;21100;-65
2021/05/06 11:32:34;;;;;;;5.72;1.98;;;;;;;13.25;39.99;97547.93;1704191;84;21228;-67
2021/05/06 11:35:04;;;;;;;3.75;1.30;;;;;;;13.62;39.36;97541.85;1704135;84;21026;-65
2021/05/06 11:37:34;;;;;;;3.00;1.40;;;;;;;14.03;36.74;97537.22;1704265;84;21022;-66
2021/05/06 11:40:16;;;;;;;3.35;1.50;;;;;;;14.24;35.01;97537.28;1704103;84;21025;-63
2021/05/06 11:42:42;;;;;;;3.40;1.30;;;;;;;14.32;34.60;97539.16;1703792;81;20914;-63
2021/05/06 11:45:23;;;;;;;2.25;1.20;;;;;;;14.54;35.60;97546.98;1675123;84;21426;-62
2021/05/06 11:47:53;;;;;;;4.65;1.32;;;;;;;14.59;34.24;97540.05;1704152;84;21077;-65
2021/05/06 11:50:29;;;;;;;3.22;1.17;;;;;;;14.57;34.98;97542.29;1704254;84;21065;-64
2021/05/06 11:52:59;;;;;;;3.05;1.22;;;;;;;14.75;32.58;97544.30;1704343;84;20906;-62
2021/05/06 11:55:42;;;;;;;4.53;1.87;;;;;;;14.93;33.65;97537.11;1702395;82;21137;-64
2021/05/06 11:58:23;;;;;;;6.45;1.80;;;;;;;15.23;32.24;97558.62;1665619;86;21212;-64
2021/05/06 12:00:53;;;;;;;7.20;1.70;;;;;;;15.15;32.87;97535.20;1696573;84;21212;-64
2021/05/06 12:03:37;;;;;;;4.80;1.77;;;;;;;14.98;32.26;97532.88;1701955;84;21037;-64
2021/05/06 12:06:06;;;;;;;3.47;1.40;;;;;;;14.99;32.16;97533.12;1706231;84;21525;-64
2021/05/06 12:08:48;;;;;;;2.70;1.40;;;;;;;15.15;32.46;97533.84;1706646;84;21168;-63
2021/05/06 12:11:17;;;;;;;3.65;1.25;;;;;;;15.40;31.33;97549.80;1706675;84;21205;-61
2021/05/06 12:13:46;;;;;;;8.08;1.35;;;;;;;15.49;31.24;97533.03;1707176;84;21125;-61
2021/05/06 12:16:23;;;;;;;3.55;1.42;;;;;;;15.64;32.39;97532.94;1707417;84;21181;-63
2021/05/06 12:19:06;;;;;;;3.72;1.40;;;;;;;15.92;30.77;97535.83;1706360;84;21187;-63
2021/05/06 12:21:44;;;;;;;3.72;1.10;;;;;;;16.11;31.11;97553.05;1705486;84;21277;-62
2021/05/06 12:24:16;;;;;;;1.92;1.10;;;;;;;16.36;30.19;97541.72;1696318;84;21388;-64
2021/05/06 12:26:44;;;;;;;8.03;1.62;;;;;;;16.38;29.27;97549.72;1708426;83;21168;-61
2021/05/06 12:29:20;;;;;;;2.45;1.15;;;;;;;16.40;27.45;97559.63;1717110;83;21228;-64
2021/05/06 12:31:51;;;;;;;2.50;1.05;;;;;;;16.27;27.83;97543.16;1717284;83;21232;-64
2021/05/06 12:34:22;;;;;;;2.25;1.30;;;;;;;16.27;29.53;97549.91;1717457;83;21251;-65
2021/05/06 12:36:59;;;;;;;5.08;1.20;;;;;;;16.57;29.24;97542.41;1717667;82;21329;-62
2021/05/06 12:39:29;;;;;;;2.05;1.05;;;;;;;16.88;28.46;97544.52;1717610;83;21146;-63
2021/05/06 12:41:59;;;;;;;3.85;1.00;;;;;;;17.07;28.44;97540.64;1717737;83;21216;-61
2021/05/06 12:44:44;;;;;;;2.05;1.07;;;;;;;17.24;26.54;97536.27;1716149;83;21509;-62
2021/05/06 12:47:20;;;;;;;;;;;;;;;17.31;27.23;97548.66;1708743;83;21142;-61
2021/05/06 12:49:54;;;;;;;4.90;1.00;;;;;;;17.10;25.99;97546.70;1716273;83;21350;-61
2021/05/06 12:52:33;;;;;;;3.08;1.17;;;;;;;16.34;26.13;97543.42;1706496;83;21200;-64
2021/05/06 12:55:31;;;;;;;2.60;1.20;;;;;;;16.05;26.99;97544.16;1718532;83;21042;-61
2021/05/06 12:58:24;;;;;;;3.08;1.12;;;;;;;15.91;27.15;97545.84;1693626;84;21084;-63
2021/05/06 13:00:58;;;;;;;1.72;0.90;;;;;;;15.74;27.48;97546.02;1716156;83;21160;-64
2021/05/06 13:03:35;;;;;;;3.25;1.05;;;;;;;15.81;27.60;97540.06;1716078;83;21109;-64
2021/05/06 13:06:05;;;;;;;2.60;0.93;;;;;;;15.98;29.47;97531.22;1712425;83;21176;-63
2021/05/06 13:08:41;;;;;;;2.80;1.10;;;;;;;16.20;28.04;97540.23;1693596;84;21164;-61
2021/05/06 13:11:15;;;;;;;1.25;0.80;;;;;;;16.50;28.08;97527.85;1693644;84;20938;-66
2021/05/06 13:13:52;;;;;;;2.10;0.80;;;;;;;16.91;26.00;97534.38;1664179;86;21197;-62
2021/05/06 13:19:24;;;;;;;2.37;0.88;;;;;;;17.30;25.02;97520.59;1873159;76;22399;-65
2021/05/06 13:21:54;;;;;;;2.72;0.90;;;;;;;17.30;24.23;97508.41;1812336;77;21081;-62
2021/05/06 13:24:24;;;;;;;2.62;0.90;;;;;;;17.26;24.60;97525.92;1844442;77;22020;-63
2021/05/06 13:26:53;;;;;;;4.20;0.95;;;;;;;17.28;25.31;97526.36;1844219;77;20927;-64
2021/05/06 13:29:22;;;;;;;2.08;1.15;;;;;;;17.53;26.04;97526.49;1844313;77;21002;-62
2021/05/06 13:31:51;;;;;;;2.85;1.00;;;;;;;17.66;26.86;97527.99;1844320;77;20974;-62
2021/05/06 13:34:26;;;;;;;3.55;1.10;;;;;;;17.66;27.01;97527.99;1844292;77;20990;-65
2021/05/06 13:37:03;;;;;;;2.33;0.90;;;;;;;17.80;25.99;97524.09;1844593;77;21178;-64
2021/05/06 13:39:35;;;;;;;1.27;0.90;;;;;;;17.86;26.01;97522.69;1845528;77;20879;-62
2021/05/06 13:42:05;;;;;;;2.12;0.93;;;;;;;17.63;26.25;97527.35;1844351;77;21058;-62
2021/05/06 13:44:34;;;;;;;3.00;1.02;;;;;;;17.63;26.30;97530.06;1844266;77;20891;-64
2021/05/06 13:47:06;;;;;;;3.05;0.95;;;;;;;17.71;27.07;97520.97;1844383;77;21038;-62
2021/05/06 13:49:35;;;;;;;1.62;0.88;;;;;;;17.92;26.21;97521.31;1844398;77;21179;-63
2021/05/06 13:52:05;;;;;;;1.62;0.93;;;;;;;17.87;26.85;97516.16;1844218;77;20927;-63
2021/05/06 13:54:33;;;;;;;1.65;0.80;;;;;;;17.80;26.64;97514.61;1844379;77;21453;-64
2021/05/06 13:57:03;;;;;;;1.47;0.98;;;;;;;17.80;26.83;97508.64;1844227;77;20939;-64
2021/05/06 13:59:32;;;;;;;1.70;0.80;;;;;;;18.01;27.06;97510.53;1844297;77;20903;-64
